Terminal Aerodrome Forecast
Issued by NWS

Home | Current Version | Previous Version | Text Only | Print | Product List | Glossary On
Versions: 1 2 3 4 5 6 7 8 9 10 11 12 13 14 15 16 17
000
FTUS43 KICT 210520
TAFHUT
TAF
KHUT 210520Z 2106/2206 07008KT P6SM VCTS SCT080CB OVC120
     FM211400 07014G20KT P6SM -SHRA VCTS OVC050CB
     FM212000 06014KT 6SM -SHRA VCTS OVC025CB
     FM220200 01012KT 6SM -SHRA OVC020=

USA.gov is the U.S. government's official web portal to all federal, state and local government web resources and services.